TimeCDT,TemperatureF,Dew PointF,Humidity,Sea Level PressureIn,VisibilityMPH,Wind Direction,Wind SpeedMPH,Gust SpeedMPH,PrecipitationIn,Events,Conditions,WindDirDegrees,DateUTC
12:19 AM,57.2,57.2,100,29.98,6.0,NE,9.2,-,N/A,,Light Drizzle,40,2013-04-04 05:19:00
12:33 AM,57.2,57.2,100,29.97,7.0,ENE,8.1,-,N/A,,Overcast,60,2013-04-04 05:33:00
12:43 AM,57.2,57.2,100,29.97,9.0,NE,9.2,-,N/A,,Overcast,50,2013-04-04 05:43:00
12:53 AM,57.2,57.2,100,29.97,8.0,NE,10.4,-,N/A,,Light Drizzle,50,2013-04-04 05:53:00
12:58 AM,57.6,56.5,96,29.97,7.0,NE,10.4,-,0.00,,Light Drizzle,50,2013-04-04 05:58:00
1:03 AM,57.2,57.2,100,29.96,6.0,NE,10.4,-,N/A,,Light Drizzle,50,2013-04-04 06:03:00
1:13 AM,57.2,57.2,100,29.96,5.0,NE,10.4,-,N/A,,Light Drizzle,50,2013-04-04 06:13:00
1:23 AM,57.2,57.2,100,29.95,5.0,NE,11.5,-,N/A,Rain,Light Rain,50,2013-04-04 06:23:00
1:31 AM,57.2,57.2,100,29.94,5.0,NE,10.4,-,N/A,,Overcast,50,2013-04-04 06:31:00
1:58 AM,57.7,56.8,97,29.95,7.0,ENE,11.5,-,0.01,,Overcast,60,2013-04-04 06:58:00
2:03 AM,57.2,57.2,100,29.93,7.0,ENE,10.4,-,N/A,,Overcast,60,2013-04-04 07:03:00
2:13 AM,57.2,57.2,100,29.93,6.0,ENE,9.2,-,N/A,,Overcast,60,2013-04-04 07:13:00
2:18 AM,57.2,57.2,100,29.93,6.0,NE,8.1,-,N/A,Rain,Light Rain,50,2013-04-04 07:18:00
2:30 AM,59.0,57.2,94,29.93,5.0,ENE,8.1,-,N/A,,Overcast,60,2013-04-04 07:30:00
2:58 AM,58.3,57.4,97,29.93,6.0,NE,6.9,-,0.00,,Overcast,50,2013-04-04 07:58:00
3:21 AM,59.0,57.2,94,29.91,7.0,NE,8.1,-,N/A,Rain,Light Rain,50,2013-04-04 08:21:00
3:51 AM,59.0,57.2,94,29.90,6.0,NE,10.4,-,N/A,,Overcast,50,2013-04-04 08:51:00
3:58 AM,58.5,57.6,97,29.91,7.0,ENE,9.2,-,0.01,,Overcast,60,2013-04-04 08:58:00
4:33 AM,59.0,57.2,94,29.90,10.0,ENE,9.2,-,N/A,,Overcast,60,2013-04-04 09:33:00
4:58 AM,58.6,57.7,97,29.91,10.0,NE,10.4,-,0.01,,Overcast,50,2013-04-04 09:58:00
5:08 AM,59.0,57.2,94,29.90,10.0,ENE,10.4,-,N/A,,Overcast,60,2013-04-04 10:08:00
5:11 AM,59.0,57.2,94,29.90,9.0,NE,9.2,-,N/A,Rain,Light Rain,50,2013-04-04 10:11:00
5:30 AM,59.0,57.2,94,29.91,8.0,ENE,8.1,-,N/A,,Light Drizzle,60,2013-04-04 10:30:00
5:31 AM,59.0,57.2,94,29.91,8.0,ENE,9.2,-,N/A,,Overcast,60,2013-04-04 10:31:00
5:34 AM,59.0,57.2,94,29.91,8.0,ENE,8.1,-,N/A,,Light Drizzle,60,2013-04-04 10:34:00
5:53 AM,59.0,57.2,94,29.91,7.0,ENE,11.5,-,N/A,,Overcast,60,2013-04-04 10:53:00
5:58 AM,58.1,57.0,96,29.91,7.0,ENE,10.4,-,0.02,,Overcast,60,2013-04-04 10:58:00
6:23 AM,57.2,57.2,100,29.91,10.0,ENE,13.8,20.7,N/A,,Overcast,70,2013-04-04 11:23:00
6:43 AM,57.2,55.4,94,29.92,10.0,ENE,9.2,-,N/A,,Overcast,70,2013-04-04 11:43:00
6:48 AM,57.2,55.4,94,29.91,10.0,ENE,11.5,-,N/A,,Overcast,60,2013-04-04 11:48:00
6:58 AM,57.2,55.4,94,29.93,10.0,ENE,10.4,-,N/A,,Overcast,70,2013-04-04 11:58:00
7:13 AM,57.2,55.4,94,29.93,10.0,ENE,10.4,-,N/A,,Overcast,70,2013-04-04 12:13:00
7:25 AM,57.2,55.4,94,29.93,10.0,ENE,10.4,-,N/A,,Overcast,70,2013-04-04 12:25:00
7:55 AM,57.2,55.4,94,29.94,7.0,ENE,8.1,-,N/A,,Overcast,70,2013-04-04 12:55:00
7:58 AM,56.5,55.4,96,29.95,7.0,ENE,8.1,-,N/A,,Overcast,60,2013-04-04 12:58:00
8:16 AM,57.2,55.4,94,29.94,4.0,NE,8.1,-,N/A,Rain,Light Rain,50,2013-04-04 13:16:00
8:28 AM,57.2,55.4,94,29.94,4.0,NE,5.8,-,N/A,,Overcast,50,2013-04-04 13:28:00
8:33 AM,57.2,55.4,94,29.94,4.0,NE,5.8,-,N/A,,Overcast,40,2013-04-04 13:33:00
8:58 AM,56.5,55.4,96,29.96,4.0,NNE,6.9,-,0.00,,Overcast,30,2013-04-04 13:58:00
9:15 AM,57.2,55.4,94,29.96,5.0,NE,9.2,-,N/A,Rain,Light Rain,40,2013-04-04 14:15:00
9:25 AM,55.4,55.4,100,29.96,5.0,NE,5.8,-,N/A,Rain,Light Rain,50,2013-04-04 14:25:00
9:45 AM,57.2,55.4,94,29.96,10.0,NNE,9.2,-,N/A,,Overcast,30,2013-04-04 14:45:00
9:58 AM,56.1,55.0,96,29.97,10.0,NE,10.4,-,0.01,,Overcast,50,2013-04-04 14:58:00
10:08 AM,57.2,55.4,94,29.96,10.0,NE,8.1,-,N/A,,Overcast,50,2013-04-04 15:08:00
10:58 AM,57.4,55.8,94,29.97,10.0,NNE,9.2,-,N/A,,Overcast,30,2013-04-04 15:58:00
11:03 AM,57.2,55.4,94,29.96,10.0,NE,10.4,-,N/A,,Overcast,50,2013-04-04 16:03:00
11:18 AM,57.2,55.4,94,29.96,10.0,NNE,8.1,-,N/A,,Overcast,30,2013-04-04 16:18:00
11:58 AM,59.0,55.8,89,29.96,10.0,NE,8.1,-,N/A,,Overcast,40,2013-04-04 16:58:00
12:08 PM,59.0,55.4,88,29.95,10.0,NNE,5.8,-,N/A,,Overcast,30,2013-04-04 17:08:00
12:28 PM,59.0,55.4,88,29.95,10.0,NE,4.6,-,N/A,,Overcast,40,2013-04-04 17:28:00
12:58 PM,59.7,55.6,86,29.94,10.0,NE,5.8,-,N/A,,Overcast,40,2013-04-04 17:58:00
1:58 PM,60.3,55.9,86,29.94,10.0,ENE,4.6,-,N/A,,Overcast,70,2013-04-04 18:58:00
2:58 PM,60.4,56.1,86,29.93,10.0,ENE,4.6,-,N/A,,Overcast,60,2013-04-04 19:58:00
3:29 PM,60.8,57.2,88,29.91,10.0,NNE,3.5,-,N/A,,Overcast,20,2013-04-04 20:29:00
3:58 PM,61.5,56.7,84,29.92,10.0,NE,6.9,-,N/A,,Overcast,40,2013-04-04 20:58:00
4:58 PM,61.2,56.5,85,29.92,10.0,NE,5.8,-,N/A,,Overcast,40,2013-04-04 21:58:00
5:58 PM,59.5,55.6,87,29.91,10.0,East,9.2,-,N/A,,Overcast,80,2013-04-04 22:58:00
6:58 PM,57.2,54.0,89,29.90,10.0,NE,8.1,-,N/A,,Overcast,40,2013-04-04 23:58:00
7:03 PM,57.2,53.6,88,29.89,10.0,NE,9.2,-,N/A,,Overcast,40,2013-04-05 00:03:00
7:33 PM,55.4,53.6,94,29.88,10.0,NE,10.4,-,N/A,,Overcast,50,2013-04-05 00:33:00
7:58 PM,55.2,52.9,92,29.89,10.0,NE,10.4,-,N/A,,Overcast,40,2013-04-05 00:58:00
8:09 PM,55.4,51.8,88,29.89,10.0,NE,6.9,-,N/A,,Overcast,50,2013-04-05 01:09:00
8:58 PM,54.1,52.2,93,29.91,10.0,NE,8.1,-,N/A,,Overcast,40,2013-04-05 01:58:00
9:03 PM,53.6,51.8,94,29.90,10.0,NNE,8.1,-,N/A,,Overcast,30,2013-04-05 02:03:00
9:58 PM,53.6,51.8,94,29.92,10.0,NE,5.8,-,N/A,,Overcast,40,2013-04-05 02:58:00
10:43 PM,53.6,51.8,94,29.92,10.0,ENE,6.9,-,N/A,,Overcast,60,2013-04-05 03:43:00
10:58 PM,53.1,51.6,95,29.93,10.0,ENE,5.8,-,N/A,,Overcast,60,2013-04-05 03:58:00
11:58 PM,52.3,50.9,95,29.92,10.0,ENE,8.1,-,N/A,,Overcast,60,2013-04-05 04:58:00